Esfahan, Iran

1:18 AM IRST on December 19, 2014 (GMT +0330)
Shahid Beheshti | Change Station
CLOSE
Current Station
Airport
Location: Esfahan,
Elevation: 5056 ft
Nearby Weather Stations

Elev 5056 ft 32.75 °N, 51.87 °E | Updated 18 minutes ago

Clear
Clear
28 °F
Feels Like 28 °F
N
0
Wind Variable Wind from North

Today
High -- | Low -- °F
--% Chance of Precip.
Yesterday
High -- | Low -- °F
Precip. -- in
6:59 AM 4:59 PM
Waning Crescent, 12% visible
Pressure 30.24 in
Visibility 4.3 miles
Clouds Clear
Dew Point 19 °F
Humidity 69%
Rainfall 0.00 in
Snow Depth Not available.
UV 0 out of 12
Pollen Not available.
Air Quality Not available.
Flu Activity Not available.
METAR OIFM 182130Z 00000KT 7000 SKC M02/M07 Q1024 A3024

More Conditions Fewer Conditions

Pressure 30.24 in
Visibility 4.3 miles
Clouds Clear
Dew Point 19 °F
Humidity 69%
Rainfall 0.00 in
Snow Depth Not available.
UV 0 out of 12
Pollen Not available.
Air Quality Not available.
Flu Activity Not available.
METAR OIFM 182130Z 00000KT 7000 SKC M02/M07 Q1024 A3024

More Conditions Fewer Conditions

10-Day Weather Forecast

Almanac

Astronomy

Dec. 19, 2014 Rise Set
Actual Time
Civil Twilight
Nautical Twilight
Astronomical Twilight
Moon
Length of Visible Light
Length of Day
Tomorrow will be .
, % of the Moon is Illuminated

Today's Extremes

Country Highs Country Lows

Community

WunderPhotos

Upload Photos

1,778,999 photos uploaded!

WunderBlogs® & News

Nearby

Air Quality

  Air Quality AQ Index Pollutant
Not available.

Snow Depth

Station Depth Elevation

Earthquake Activity

City Distance Mag. Time & Date
Minimum magnitude displayed is 2.5.

Coastal Water Temperatures

Place Temperature

Nearby Weather Stations